Burns Harbor — WDB4745 — position and weather

sailwx.info

Track history (hours):
 
Tides and Currents Weather Stations Pressure Air Temp Water Temp Dewpoint Dewpoint Depression Visibility Wind Speed Wind Dir Waves Ship Positions

Burns Harbor

Owner: ISG Burns Harbor Inc, Burns Harbor, IN. More information available from US FCC via Universal Licensing System and Coast Guard Vessel Documentation Center.

Last reported at 2018-Jun-18 17:00 UTC. Time now 2018-Jun-18 17:20 UTC.
Position N 46°42' W 092°01'.

Length 330 m; draft 7.2 m.

Type: Cargo ship. MMSI: 366901880.

Date/timePositionNaut miles runAvg speedWind from/ knotsBaromVisibWave heightAir tempDewpointWater temp
2018-Jun-18 17:00N 46°42' W 092°01'0 0.0
2018-Jun-18 16:30N 46°42' W 092°01'0 0.0
2018-Jun-18 16:00N 46°42' W 092°01'0 0.0
2018-Jun-18 15:30N 46°42' W 092°01'0 0.0
2018-Jun-18 15:00N 46°42' W 092°01'0 0.0
2018-Jun-18 14:30N 46°42' W 092°01'0 0.0
2018-Jun-18 14:00N 46°42' W 092°01'0 0.0
2018-Jun-18 13:30N 46°42' W 092°01'0 0.0
2018-Jun-18 13:00N 46°42' W 092°01'0 0.0
2018-Jun-18 12:30N 46°42' W 092°01'0 0.0
2018-Jun-18 12:00N 46°42' W 092°01'0 0.0
2018-Jun-18 11:30N 46°42' W 092°01'0 0.0
2018-Jun-18 11:00N 46°42' W 092°01'0 0.0
2018-Jun-18 10:30N 46°42' W 092°01'0 0.0
2018-Jun-18 10:00N 46°42' W 092°01'0 0.0
2018-Jun-18 09:30N 46°42' W 092°01'0 0.0
2018-Jun-18 09:00N 46°42' W 092°01'0 0.0
2018-Jun-18 08:30N 46°42' W 092°01'0 0.0
2018-Jun-18 07:59N 46°42' W 092°01'0 0.0
2018-Jun-18 07:30N 46°42' W 092°01'1 1.4
2018-Jun-18 07:00N 46°43' W 092°01'5 9.8
2018-Jun-18 06:30N 46°45' W 091°55'613.0
2018-Jun-18 06:00N 46°49' W 091°47'713.1
2018-Jun-18 05:30N 46°51' W 091°38'306 9.4
2018-Jun-16 20:45N 45°51' W 084°22'313.3
2018-Jun-16 20:30N 45°51' W 084°27'713.2
2018-Jun-16 20:00N 45°51' W 084°37'713.4
2018-Jun-16 19:30N 45°49' W 084°46'713.5
2018-Jun-16 19:00N 45°50' W 084°55'713.3
2018-Jun-16 18:30N 45°50' W 085°05'5 9.4
2018-Jun-16 18:00N 45°46' W 085°09'612.6
2018-Jun-16 17:30N 45°41' W 085°14'713.1
2018-Jun-16 17:00N 45°36' W 085°20'713.1
2018-Jun-16 16:30N 45°30' W 085°25'613.2
2018-Jun-16 16:00N 45°25' W 085°31'713.0
2018-Jun-16 15:30N 45°20' W 085°36'713.1
2018-Jun-16 15:00N 45°15' W 085°42'  
2018-Jun-12 18:48N 45°52' W 085°40'511.5
2018-Jun-12 18:19N 45°54' W 085°32'411.6
2018-Jun-12 17:57N 45°54' W 085°26'511.8
2018-Jun-12 17:29N 45°53' W 085°19'611.8
2018-Jun-12 17:00N 45°52' W 085°10'612.0
2018-Jun-12 16:30N 45°51' W 085°02'612.0
2018-Jun-12 16:00N 45°50' W 084°53'612.0
2018-Jun-12 15:30N 45°49' W 084°45'610.9
2018-Jun-12 15:00N 45°50' W 084°37'711.5
2018-Jun-12 14:26N 45°52' W 084°28'302 7.9
2018-Jun-11 00:22N 46°51' W 091°37'511.5
2018-Jun-10 23:59N 46°49' W 091°43'611.6
2018-Jun-10 23:29N 46°46' W 091°50'511.4
2018-Jun-10 23:00N 46°44' W 091°57'3 6.4
2018-Jun-10 22:30N 46°42' W 092°01'0 0.7
2018-Jun-10 22:00N 46°42' W 092°01'0 0.0
2018-Jun-10 21:30N 46°42' W 092°01'0 0.0
2018-Jun-10 21:00N 46°42' W 092°01'0 0.0
2018-Jun-10 20:30N 46°42' W 092°01'0 0.0
2018-Jun-10 20:00N 46°42' W 092°01'0 0.0
2018-Jun-10 19:30N 46°42' W 092°01'0 0.0
2018-Jun-10 19:00N 46°42' W 092°01'0 0.0
2018-Jun-10 18:30N 46°42' W 092°01'0 0.0
2018-Jun-10 18:00N 46°42' W 092°01'0 0.0
2018-Jun-10 17:30N 46°42' W 092°01'0 0.0
2018-Jun-10 17:00N 46°42' W 092°01'0 0.0
2018-Jun-10 16:30N 46°42' W 092°01'0 0.0
2018-Jun-10 16:00N 46°42' W 092°01'0 0.0
2018-Jun-10 15:30N 46°42' W 092°01'0 0.0
2018-Jun-10 15:00N 46°42' W 092°01'0 0.0
2018-Jun-10 14:30N 46°42' W 092°01'0 0.0
2018-Jun-10 13:30N 46°42' W 092°01'0 0.0
2018-Jun-10 13:00N 46°42' W 092°01'0 0.0
2018-Jun-10 12:30N 46°42' W 092°01'0 0.0
2018-Jun-10 12:00N 46°42' W 092°01'0 0.0
2018-Jun-10 11:30N 46°42' W 092°01'0 0.0
2018-Jun-10 11:00N 46°42' W 092°01'0 0.0
2018-Jun-10 10:30N 46°42' W 092°01'0 0.0
2018-Jun-10 10:00N 46°42' W 092°01'0 0.0
2018-Jun-10 09:30N 46°42' W 092°01'0 0.0
2018-Jun-10 09:00N 46°42' W 092°01'0 0.0
2018-Jun-10 08:30N 46°42' W 092°01'0 0.0
2018-Jun-10 08:00N 46°42' W 092°01'0 0.0
2018-Jun-10 07:30N 46°42' W 092°01'0 0.0
2018-Jun-10 07:00N 46°42' W 092°01'0 0.0
2018-Jun-10 06:30N 46°42' W 092°01'0 0.0
2018-Jun-10 06:00N 46°42' W 092°01'0 0.8
2018-Jun-10 05:30N 46°42' W 092°01'2 3.6
2018-Jun-10 05:00N 46°43' W 091°59'612.2
2018-Jun-10 04:30N 46°47' W 091°52'713.1
2018-Jun-10 04:00N 46°50' W 091°43'32510.4
2018-Jun-08 20:52N 45°55' W 083°59'1312.9
2018-Jun-08 19:50N 45°52' W 084°18'412.8
2018-Jun-08 19:30N 45°51' W 084°23'612.7
2018-Jun-08 19:00N 45°51' W 084°33'612.1
2018-Jun-08 18:30N 45°49' W 084°41'612.5
2018-Jun-08 18:00N 45°49' W 084°50'612.6
2018-Jun-08 17:30N 45°50' W 084°59'612.1
2018-Jun-08 17:01N 45°50' W 085°08'  
Track history (hours):
 
Tides and Currents Weather Stations Pressure Air Temp Water Temp Dewpoint Dewpoint Depression Visibility Wind Speed Wind Dir Waves Ship Positions

Burns Harbor

Owner: ISG Burns Harbor Inc, Burns Harbor, IN. More information available from US FCC via Universal Licensing System and Coast Guard Vessel Documentation Center.

Last reported at 2018-Jun-18 17:00 UTC. Time now 2018-Jun-18 17:20 UTC.
Position N 46°42' W 092°01'.

Length 330 m; draft 7.2 m.

Type: Cargo ship. MMSI: 366901880.

Date/timePositionNaut miles runAvg speedWind from/ knotsBaromVisibWave heightAir tempDewpointWater temp
2018-Jun-18 17:00N 46°42' W 092°01'0 0.0
2018-Jun-18 16:30N 46°42' W 092°01'0 0.0
2018-Jun-18 16:00N 46°42' W 092°01'0 0.0
2018-Jun-18 15:30N 46°42' W 092°01'0 0.0
2018-Jun-18 15:00N 46°42' W 092°01'0 0.0
2018-Jun-18 14:30N 46°42' W 092°01'0 0.0
2018-Jun-18 14:00N 46°42' W 092°01'0 0.0
2018-Jun-18 13:30N 46°42' W 092°01'0 0.0
2018-Jun-18 13:00N 46°42' W 092°01'0 0.0
2018-Jun-18 12:30N 46°42' W 092°01'0 0.0
2018-Jun-18 12:00N 46°42' W 092°01'0 0.0
2018-Jun-18 11:30N 46°42' W 092°01'0 0.0
2018-Jun-18 11:00N 46°42' W 092°01'0 0.0
2018-Jun-18 10:30N 46°42' W 092°01'0 0.0
2018-Jun-18 10:00N 46°42' W 092°01'0 0.0
2018-Jun-18 09:30N 46°42' W 092°01'0 0.0
2018-Jun-18 09:00N 46°42' W 092°01'0 0.0
2018-Jun-18 08:30N 46°42' W 092°01'0 0.0
2018-Jun-18 07:59N 46°42' W 092°01'0 0.0
2018-Jun-18 07:30N 46°42' W 092°01'1 1.4
2018-Jun-18 07:00N 46°43' W 092°01'5 9.8
2018-Jun-18 06:30N 46°45' W 091°55'613.0
2018-Jun-18 06:00N 46°49' W 091°47'713.1
2018-Jun-18 05:30N 46°51' W 091°38'306 9.4
2018-Jun-16 20:45N 45°51' W 084°22'313.3
2018-Jun-16 20:30N 45°51' W 084°27'713.2
2018-Jun-16 20:00N 45°51' W 084°37'713.4
2018-Jun-16 19:30N 45°49' W 084°46'713.5
2018-Jun-16 19:00N 45°50' W 084°55'713.3
2018-Jun-16 18:30N 45°50' W 085°05'5 9.4
2018-Jun-16 18:00N 45°46' W 085°09'612.6
2018-Jun-16 17:30N 45°41' W 085°14'713.1
2018-Jun-16 17:00N 45°36' W 085°20'713.1
2018-Jun-16 16:30N 45°30' W 085°25'613.2
2018-Jun-16 16:00N 45°25' W 085°31'713.0
2018-Jun-16 15:30N 45°20' W 085°36'713.1
2018-Jun-16 15:00N 45°15' W 085°42'  
2018-Jun-12 18:48N 45°52' W 085°40'511.5
2018-Jun-12 18:19N 45°54' W 085°32'411.6
2018-Jun-12 17:57N 45°54' W 085°26'511.8
2018-Jun-12 17:29N 45°53' W 085°19'611.8
2018-Jun-12 17:00N 45°52' W 085°10'612.0
2018-Jun-12 16:30N 45°51' W 085°02'612.0
2018-Jun-12 16:00N 45°50' W 084°53'612.0
2018-Jun-12 15:30N 45°49' W 084°45'610.9
2018-Jun-12 15:00N 45°50' W 084°37'711.5
2018-Jun-12 14:26N 45°52' W 084°28'302 7.9
2018-Jun-11 00:22N 46°51' W 091°37'511.5
2018-Jun-10 23:59N 46°49' W 091°43'611.6
2018-Jun-10 23:29N 46°46' W 091°50'511.4
2018-Jun-10 23:00N 46°44' W 091°57'3 6.4
2018-Jun-10 22:30N 46°42' W 092°01'0 0.7
2018-Jun-10 22:00N 46°42' W 092°01'0 0.0
2018-Jun-10 21:30N 46°42' W 092°01'0 0.0
2018-Jun-10 21:00N 46°42' W 092°01'0 0.0
2018-Jun-10 20:30N 46°42' W 092°01'0 0.0
2018-Jun-10 20:00N 46°42' W 092°01'0 0.0
2018-Jun-10 19:30N 46°42' W 092°01'0 0.0
2018-Jun-10 19:00N 46°42' W 092°01'0 0.0
2018-Jun-10 18:30N 46°42' W 092°01'0 0.0
2018-Jun-10 18:00N 46°42' W 092°01'0 0.0
2018-Jun-10 17:30N 46°42' W 092°01'0 0.0
2018-Jun-10 17:00N 46°42' W 092°01'0 0.0
2018-Jun-10 16:30N 46°42' W 092°01'0 0.0
2018-Jun-10 16:00N 46°42' W 092°01'0 0.0
2018-Jun-10 15:30N 46°42' W 092°01'0 0.0
2018-Jun-10 15:00N 46°42' W 092°01'0 0.0
2018-Jun-10 14:30N 46°42' W 092°01'0 0.0
2018-Jun-10 13:30N 46°42' W 092°01'0 0.0
2018-Jun-10 13:00N 46°42' W 092°01'0 0.0
2018-Jun-10 12:30N 46°42' W 092°01'0 0.0
2018-Jun-10 12:00N 46°42' W 092°01'0 0.0
2018-Jun-10 11:30N 46°42' W 092°01'0 0.0
2018-Jun-10 11:00N 46°42' W 092°01'0 0.0
2018-Jun-10 10:30N 46°42' W 092°01'0 0.0
2018-Jun-10 10:00N 46°42' W 092°01'0 0.0
2018-Jun-10 09:30N 46°42' W 092°01'0 0.0
2018-Jun-10 09:00N 46°42' W 092°01'0 0.0
2018-Jun-10 08:30N 46°42' W 092°01'0 0.0
2018-Jun-10 08:00N 46°42' W 092°01'0 0.0
2018-Jun-10 07:30N 46°42' W 092°01'0 0.0
2018-Jun-10 07:00N 46°42' W 092°01'0 0.0
2018-Jun-10 06:30N 46°42' W 092°01'0 0.0
2018-Jun-10 06:00N 46°42' W 092°01'0 0.8
2018-Jun-10 05:30N 46°42' W 092°01'2 3.6
2018-Jun-10 05:00N 46°43' W 091°59'612.2
2018-Jun-10 04:30N 46°47' W 091°52'713.1
2018-Jun-10 04:00N 46°50' W 091°43'32510.4
2018-Jun-08 20:52N 45°55' W 083°59'1312.9
2018-Jun-08 19:50N 45°52' W 084°18'412.8
2018-Jun-08 19:30N 45°51' W 084°23'612.7
2018-Jun-08 19:00N 45°51' W 084°33'612.1
2018-Jun-08 18:30N 45°49' W 084°41'612.5
2018-Jun-08 18:00N 45°49' W 084°50'612.6
2018-Jun-08 17:30N 45°50' W 084°59'612.1
2018-Jun-08 17:01N 45°50' W 085°08'  

Dump ship's entire track history